sensor_id;sensor_type;location;lat;lon;timestamp;P1;durP1;ratioP1;P2;durP2;ratioP2
12567;SDS011;6349;50.904;6.136;2023-04-19T00:01:02;12.27;;;10.30;;
12567;SDS011;6349;50.904;6.136;2023-04-19T00:03:04;10.67;;;9.67;;
12567;SDS011;6349;50.904;6.136;2023-04-19T00:05:05;11.10;;;10.10;;
12567;SDS011;6349;50.904;6.136;2023-04-19T00:07:06;10.70;;;9.70;;
12567;SDS011;6349;50.904;6.136;2023-04-19T00:09:07;10.90;;;9.90;;
12567;SDS011;6349;50.904;6.136;2023-04-19T00:11:08;11.13;;;10.03;;
12567;SDS011;6349;50.904;6.136;2023-04-19T00:13:09;10.60;;;9.70;;
12567;SDS011;6349;50.904;6.136;2023-04-19T00:15:10;10.90;;;9.90;;
12567;SDS011;6349;50.904;6.136;2023-04-19T00:17:10;10.47;;;9.53;;
12567;SDS011;6349;50.904;6.136;2023-04-19T00:19:11;10.57;;;9.57;;
12567;SDS011;6349;50.904;6.136;2023-04-19T00:21:11;11.00;;;10.00;;
12567;SDS011;6349;50.904;6.136;2023-04-19T00:23:13;9.90;;;9.00;;
12567;SDS011;6349;50.904;6.136;2023-04-19T00:25:14;10.23;;;9.23;;
12567;SDS011;6349;50.904;6.136;2023-04-19T00:27:14;10.10;;;9.13;;
12567;SDS011;6349;50.904;6.136;2023-04-19T00:29:15;10.10;;;9.20;;
12567;SDS011;6349;50.904;6.136;2023-04-19T00:31:15;9.90;;;9.00;;
12567;SDS011;6349;50.904;6.136;2023-04-19T00:33:16;10.23;;;9.27;;
12567;SDS011;6349;50.904;6.136;2023-04-19T00:35:16;9.70;;;8.80;;
12567;SDS011;6349;50.904;6.136;2023-04-19T00:37:17;10.07;;;9.07;;
12567;SDS011;6349;50.904;6.136;2023-04-19T00:39:17;9.93;;;9.03;;
12567;SDS011;6349;50.904;6.136;2023-04-19T00:41:18;10.97;;;9.90;;
12567;SDS011;6349;50.904;6.136;2023-04-19T00:43:19;10.17;;;9.27;;
12567;SDS011;6349;50.904;6.136;2023-04-19T00:45:19;11.40;;;10.30;;
12567;SDS011;6349;50.904;6.136;2023-04-19T00:47:20;10.77;;;9.77;;
12567;SDS011;6349;50.904;6.136;2023-04-19T00:49:21;11.27;;;10.07;;
12567;SDS011;6349;50.904;6.136;2023-04-19T00:51:23;10.43;;;9.43;;
12567;SDS011;6349;50.904;6.136;2023-04-19T00:53:23;11.30;;;10.30;;
12567;SDS011;6349;50.904;6.136;2023-04-19T00:55:24;10.57;;;9.57;;
12567;SDS011;6349;50.904;6.136;2023-04-19T00:57:24;11.17;;;10.13;;
12567;SDS011;6349;50.904;6.136;2023-04-19T00:59:25;11.50;;;10.40;;
12567;SDS011;6349;50.904;6.136;2023-04-19T01:01:26;11.93;;;10.60;;
12567;SDS011;6349;50.904;6.136;2023-04-19T01:03:27;11.07;;;10.07;;
12567;SDS011;6349;50.904;6.136;2023-04-19T01:05:28;11.33;;;10.23;;
12567;SDS011;6349;50.904;6.136;2023-04-19T01:07:29;10.83;;;9.83;;
12567;SDS011;6349;50.904;6.136;2023-04-19T01:09:33;11.40;;;10.30;;
12567;SDS011;6349;50.904;6.136;2023-04-19T01:11:34;11.23;;;10.13;;
12567;SDS011;6349;50.904;6.136;2023-04-19T01:13:35;11.63;;;10.63;;
12567;SDS011;6349;50.904;6.136;2023-04-19T01:15:35;11.00;;;10.00;;
12567;SDS011;6349;50.904;6.136;2023-04-19T01:17:36;11.73;;;10.63;;
12567;SDS011;6349;50.904;6.136;2023-04-19T01:19:36;11.73;;;10.73;;
12567;SDS011;6349;50.904;6.136;2023-04-19T01:21:37;11.30;;;10.20;;
12567;SDS011;6349;50.904;6.136;2023-04-19T01:23:39;12.10;;;10.90;;
12567;SDS011;6349;50.904;6.136;2023-04-19T01:25:39;12.20;;;11.00;;
12567;SDS011;6349;50.904;6.136;2023-04-19T01:27:40;10.77;;;9.67;;
12567;SDS011;6349;50.904;6.136;2023-04-19T01:29:40;11.50;;;10.47;;
12567;SDS011;6349;50.904;6.136;2023-04-19T01:31:41;11.90;;;10.37;;
12567;SDS011;6349;50.904;6.136;2023-04-19T01:33:42;12.03;;;10.93;;
12567;SDS011;6349;50.904;6.136;2023-04-19T01:35:42;12.40;;;11.20;;
12567;SDS011;6349;50.904;6.136;2023-04-19T01:37:43;11.07;;;10.07;;
12567;SDS011;6349;50.904;6.136;2023-04-19T01:39:43;11.23;;;10.23;;
12567;SDS011;6349;50.904;6.136;2023-04-19T01:41:44;11.13;;;10.13;;
12567;SDS011;6349;50.904;6.136;2023-04-19T01:43:44;11.43;;;10.33;;
12567;SDS011;6349;50.904;6.136;2023-04-19T01:45:45;12.13;;;10.93;;
12567;SDS011;6349;50.904;6.136;2023-04-19T01:47:45;12.07;;;10.87;;
12567;SDS011;6349;50.904;6.136;2023-04-19T01:49:46;11.60;;;10.60;;
12567;SDS011;6349;50.904;6.136;2023-04-19T01:51:46;11.70;;;10.60;;
12567;SDS011;6349;50.904;6.136;2023-04-19T01:53:47;11.77;;;10.67;;
12567;SDS011;6349;50.904;6.136;2023-04-19T01:55:53;12.33;;;11.13;;
12567;SDS011;6349;50.904;6.136;2023-04-19T01:57:54;11.73;;;10.70;;
12567;SDS011;6349;50.904;6.136;2023-04-19T01:59:56;11.97;;;10.67;;
12567;SDS011;6349;50.904;6.136;2023-04-19T02:01:56;12.00;;;10.80;;
12567;SDS011;6349;50.904;6.136;2023-04-19T02:03:57;11.97;;;10.87;;
12567;SDS011;6349;50.904;6.136;2023-04-19T02:05:58;12.53;;;11.33;;
12567;SDS011;6349;50.904;6.136;2023-04-19T02:07:58;11.50;;;10.50;;
12567;SDS011;6349;50.904;6.136;2023-04-19T02:10:00;11.30;;;10.30;;
12567;SDS011;6349;50.904;6.136;2023-04-19T02:12:01;11.97;;;10.77;;
12567;SDS011;6349;50.904;6.136;2023-04-19T02:14:02;11.57;;;10.50;;
12567;SDS011;6349;50.904;6.136;2023-04-19T02:16:02;11.83;;;10.73;;
12567;SDS011;6349;50.904;6.136;2023-04-19T02:18:04;11.17;;;10.07;;
12567;SDS011;6349;50.904;6.136;2023-04-19T02:20:06;11.70;;;10.53;;
12567;SDS011;6349;50.904;6.136;2023-04-19T02:22:09;12.73;;;11.37;;
12567;SDS011;6349;50.904;6.136;2023-04-19T02:24:10;12.20;;;10.90;;
12567;SDS011;6349;50.904;6.136;2023-04-19T02:26:11;13.27;;;10.83;;
12567;SDS011;6349;50.904;6.136;2023-04-19T02:28:12;12.07;;;10.90;;
12567;SDS011;6349;50.904;6.136;2023-04-19T02:30:12;12.20;;;11.03;;
12567;SDS011;6349;50.904;6.136;2023-04-19T02:32:13;11.87;;;10.77;;
12567;SDS011;6349;50.904;6.136;2023-04-19T02:34:13;12.63;;;11.30;;
12567;SDS011;6349;50.904;6.136;2023-04-19T02:36:14;12.40;;;11.20;;
12567;SDS011;6349;50.904;6.136;2023-04-19T02:38:15;12.20;;;11.10;;
12567;SDS011;6349;50.904;6.136;2023-04-19T02:40:16;14.47;;;11.60;;
12567;SDS011;6349;50.904;6.136;2023-04-19T02:42:16;12.00;;;10.83;;
12567;SDS011;6349;50.904;6.136;2023-04-19T02:44:17;12.37;;;11.17;;
12567;SDS011;6349;50.904;6.136;2023-04-19T02:46:17;11.97;;;10.83;;
12567;SDS011;6349;50.904;6.136;2023-04-19T02:48:18;13.13;;;11.60;;
12567;SDS011;6349;50.904;6.136;2023-04-19T02:50:19;13.03;;;11.63;;
12567;SDS011;6349;50.904;6.136;2023-04-19T02:52:19;12.63;;;11.30;;
12567;SDS011;6349;50.904;6.136;2023-04-19T02:54:20;11.40;;;10.30;;
12567;SDS011;6349;50.904;6.136;2023-04-19T02:56:20;12.83;;;11.40;;
12567;SDS011;6349;50.904;6.136;2023-04-19T02:58:21;12.53;;;11.23;;
12567;SDS011;6349;50.904;6.136;2023-04-19T03:00:21;12.33;;;11.00;;
12567;SDS011;6349;50.904;6.136;2023-04-19T03:02:22;12.30;;;11.13;;
12567;SDS011;6349;50.904;6.136;2023-04-19T03:04:23;12.60;;;11.40;;
12567;SDS011;6349;50.904;6.136;2023-04-19T03:06:23;12.73;;;11.40;;
12567;SDS011;6349;50.904;6.136;2023-04-19T03:08:25;12.33;;;11.13;;
12567;SDS011;6349;50.904;6.136;2023-04-19T03:10:25;12.47;;;11.20;;
12567;SDS011;6349;50.904;6.136;2023-04-19T03:12:26;12.63;;;11.33;;
12567;SDS011;6349;50.904;6.136;2023-04-19T03:14:26;13.10;;;11.70;;
12567;SDS011;6349;50.904;6.136;2023-04-19T03:16:27;14.27;;;11.00;;
12567;SDS011;6349;50.904;6.136;2023-04-19T03:18:29;12.87;;;11.57;;
12567;SDS011;6349;50.904;6.136;2023-04-19T03:20:29;12.63;;;11.33;;
12567;SDS011;6349;50.904;6.136;2023-04-19T03:22:30;12.03;;;10.83;;
12567;SDS011;6349;50.904;6.136;2023-04-19T03:24:30;12.47;;;11.17;;
12567;SDS011;6349;50.904;6.136;2023-04-19T03:26:31;13.17;;;11.23;;
12567;SDS011;6349;50.904;6.136;2023-04-19T03:28:32;12.37;;;11.10;;
12567;SDS011;6349;50.904;6.136;2023-04-19T03:30:33;12.37;;;11.17;;
12567;SDS011;6349;50.904;6.136;2023-04-19T03:32:34;12.60;;;11.30;;
12567;SDS011;6349;50.904;6.136;2023-04-19T03:34:34;12.30;;;11.00;;
12567;SDS011;6349;50.904;6.136;2023-04-19T03:36:35;12.70;;;11.40;;
12567;SDS011;6349;50.904;6.136;2023-04-19T03:38:37;12.80;;;11.50;;
12567;SDS011;6349;50.904;6.136;2023-04-19T03:40:38;12.33;;;11.13;;
12567;SDS011;6349;50.904;6.136;2023-04-19T03:42:38;12.23;;;10.47;;
12567;SDS011;6349;50.904;6.136;2023-04-19T03:44:39;12.90;;;11.47;;
12567;SDS011;6349;50.904;6.136;2023-04-19T03:46:39;12.33;;;11.13;;
12567;SDS011;6349;50.904;6.136;2023-04-19T03:48:40;13.50;;;12.10;;
12567;SDS011;6349;50.904;6.136;2023-04-19T03:50:40;12.90;;;11.70;;
12567;SDS011;6349;50.904;6.136;2023-04-19T03:52:41;12.23;;;11.00;;
12567;SDS011;6349;50.904;6.136;2023-04-19T03:54:41;12.00;;;10.73;;
12567;SDS011;6349;50.904;6.136;2023-04-19T03:56:42;11.90;;;10.70;;
12567;SDS011;6349;50.904;6.136;2023-04-19T03:58:42;12.57;;;11.30;;
12567;SDS011;6349;50.904;6.136;2023-04-19T04:00:43;13.07;;;11.70;;
12567;SDS011;6349;50.904;6.136;2023-04-19T04:02:44;13.63;;;11.07;;
12567;SDS011;6349;50.904;6.136;2023-04-19T04:04:44;12.73;;;11.43;;
12567;SDS011;6349;50.904;6.136;2023-04-19T04:06:45;12.27;;;10.97;;
12567;SDS011;6349;50.904;6.136;2023-04-19T04:08:45;12.90;;;11.17;;
12567;SDS011;6349;50.904;6.136;2023-04-19T04:10:46;11.50;;;10.40;;
12567;SDS011;6349;50.904;6.136;2023-04-19T04:12:46;12.67;;;11.20;;
12567;SDS011;6349;50.904;6.136;2023-04-19T04:14:47;12.60;;;11.30;;
12567;SDS011;6349;50.904;6.136;2023-04-19T04:16:47;12.60;;;11.30;;
12567;SDS011;6349;50.904;6.136;2023-04-19T04:18:48;12.67;;;11.37;;
12567;SDS011;6349;50.904;6.136;2023-04-19T04:20:49;12.07;;;10.87;;
12567;SDS011;6349;50.904;6.136;2023-04-19T04:22:49;12.87;;;11.47;;
12567;SDS011;6349;50.904;6.136;2023-04-19T04:24:50;12.63;;;11.27;;
12567;SDS011;6349;50.904;6.136;2023-04-19T04:26:52;12.70;;;11.50;;
12567;SDS011;6349;50.904;6.136;2023-04-19T04:28:53;12.20;;;11.00;;
12567;SDS011;6349;50.904;6.136;2023-04-19T04:30:54;12.23;;;11.03;;
12567;SDS011;6349;50.904;6.136;2023-04-19T04:32:56;12.10;;;10.80;;
12567;SDS011;6349;50.904;6.136;2023-04-19T04:34:57;10.93;;;9.93;;
12567;SDS011;6349;50.904;6.136;2023-04-19T04:36:58;14.70;;;11.37;;
12567;SDS011;6349;50.904;6.136;2023-04-19T04:38:58;11.53;;;10.23;;
12567;SDS011;6349;50.904;6.136;2023-04-19T04:41:00;11.77;;;10.57;;
12567;SDS011;6349;50.904;6.136;2023-04-19T04:43:01;11.33;;;10.07;;
12567;SDS011;6349;50.904;6.136;2023-04-19T04:45:03;12.27;;;11.07;;
12567;SDS011;6349;50.904;6.136;2023-04-19T04:47:04;12.50;;;11.30;;
12567;SDS011;6349;50.904;6.136;2023-04-19T04:49:05;11.90;;;10.80;;
12567;SDS011;6349;50.904;6.136;2023-04-19T04:51:06;15.03;;;11.23;;
12567;SDS011;6349;50.904;6.136;2023-04-19T04:53:06;11.60;;;10.50;;
12567;SDS011;6349;50.904;6.136;2023-04-19T04:55:07;13.77;;;10.93;;
12567;SDS011;6349;50.904;6.136;2023-04-19T04:57:08;12.17;;;10.57;;
12567;SDS011;6349;50.904;6.136;2023-04-19T04:59:09;12.63;;;11.33;;
12567;SDS011;6349;50.904;6.136;2023-04-19T05:01:10;12.23;;;11.03;;
12567;SDS011;6349;50.904;6.136;2023-04-19T05:03:10;12.20;;;11.00;;
12567;SDS011;6349;50.904;6.136;2023-04-19T05:05:11;11.57;;;10.40;;
12567;SDS011;6349;50.904;6.136;2023-04-19T05:07:12;13.07;;;11.60;;
12567;SDS011;6349;50.904;6.136;2023-04-19T05:09:13;12.10;;;10.90;;
12567;SDS011;6349;50.904;6.136;2023-04-19T05:11:13;13.83;;;10.73;;
12567;SDS011;6349;50.904;6.136;2023-04-19T05:13:14;11.93;;;10.70;;
12567;SDS011;6349;50.904;6.136;2023-04-19T05:15:15;12.57;;;11.27;;
12567;SDS011;6349;50.904;6.136;2023-04-19T05:17:15;11.80;;;10.70;;
12567;SDS011;6349;50.904;6.136;2023-04-19T05:19:16;12.57;;;10.37;;
12567;SDS011;6349;50.904;6.136;2023-04-19T05:21:17;12.07;;;10.93;;
12567;SDS011;6349;50.904;6.136;2023-04-19T05:23:17;12.57;;;11.30;;
12567;SDS011;6349;50.904;6.136;2023-04-19T05:25:18;12.40;;;11.20;;
12567;SDS011;6349;50.904;6.136;2023-04-19T05:27:18;12.80;;;11.50;;
12567;SDS011;6349;50.904;6.136;2023-04-19T05:29:19;12.03;;;10.67;;
12567;SDS011;6349;50.904;6.136;2023-04-19T05:31:19;11.73;;;10.53;;
12567;SDS011;6349;50.904;6.136;2023-04-19T05:33:21;12.23;;;10.93;;
12567;SDS011;6349;50.904;6.136;2023-04-19T05:35:21;11.70;;;10.50;;
12567;SDS011;6349;50.904;6.136;2023-04-19T05:37:22;13.20;;;11.07;;
12567;SDS011;6349;50.904;6.136;2023-04-19T05:39:23;10.77;;;9.77;;
12567;SDS011;6349;50.904;6.136;2023-04-19T05:41:23;11.53;;;10.43;;
12567;SDS011;6349;50.904;6.136;2023-04-19T05:43:24;11.23;;;10.03;;
12567;SDS011;6349;50.904;6.136;2023-04-19T05:45:25;11.73;;;10.63;;
12567;SDS011;6349;50.904;6.136;2023-04-19T05:47:25;10.97;;;9.87;;
12567;SDS011;6349;50.904;6.136;2023-04-19T05:49:26;10.40;;;9.40;;
12567;SDS011;6349;50.904;6.136;2023-04-19T05:51:27;10.87;;;9.77;;
12567;SDS011;6349;50.904;6.136;2023-04-19T05:53:27;10.97;;;9.80;;
12567;SDS011;6349;50.904;6.136;2023-04-19T05:55:28;12.80;;;10.30;;
12567;SDS011;6349;50.904;6.136;2023-04-19T05:57:29;10.90;;;9.80;;
12567;SDS011;6349;50.904;6.136;2023-04-19T05:59:29;11.07;;;9.60;;
12567;SDS011;6349;50.904;6.136;2023-04-19T06:01:30;11.60;;;9.50;;
12567;SDS011;6349;50.904;6.136;2023-04-19T06:03:31;10.47;;;9.40;;
12567;SDS011;6349;50.904;6.136;2023-04-19T06:05:32;10.37;;;9.37;;
12567;SDS011;6349;50.904;6.136;2023-04-19T06:07:33;11.30;;;10.20;;
12567;SDS011;6349;50.904;6.136;2023-04-19T06:09:33;10.80;;;9.77;;
12567;SDS011;6349;50.904;6.136;2023-04-19T06:11:34;10.63;;;9.60;;
12567;SDS011;6349;50.904;6.136;2023-04-19T06:13:35;10.70;;;9.63;;
12567;SDS011;6349;50.904;6.136;2023-04-19T06:15:35;10.77;;;9.77;;
12567;SDS011;6349;50.904;6.136;2023-04-19T06:17:37;10.60;;;9.60;;
12567;SDS011;6349;50.904;6.136;2023-04-19T06:19:38;10.37;;;9.20;;
12567;SDS011;6349;50.904;6.136;2023-04-19T06:21:38;10.03;;;9.10;;
12567;SDS011;6349;50.904;6.136;2023-04-19T06:23:39;10.30;;;9.30;;
12567;SDS011;6349;50.904;6.136;2023-04-19T06:25:40;11.57;;;9.80;;
12567;SDS011;6349;50.904;6.136;2023-04-19T06:27:40;10.73;;;9.73;;
12567;SDS011;6349;50.904;6.136;2023-04-19T06:29:41;10.80;;;9.70;;
12567;SDS011;6349;50.904;6.136;2023-04-19T06:31:42;10.27;;;9.23;;
12567;SDS011;6349;50.904;6.136;2023-04-19T06:33:42;13.67;;;9.93;;
12567;SDS011;6349;50.904;6.136;2023-04-19T06:35:43;10.60;;;9.50;;
12567;SDS011;6349;50.904;6.136;2023-04-19T06:37:44;10.63;;;9.63;;
12567;SDS011;6349;50.904;6.136;2023-04-19T06:39:44;11.70;;;9.70;;
12567;SDS011;6349;50.904;6.136;2023-04-19T06:41:45;10.10;;;9.20;;
12567;SDS011;6349;50.904;6.136;2023-04-19T06:43:45;9.13;;;8.20;;
12567;SDS011;6349;50.904;6.136;2023-04-19T06:45:46;11.27;;;9.03;;
12567;SDS011;6349;50.904;6.136;2023-04-19T06:47:48;10.53;;;9.17;;
12567;SDS011;6349;50.904;6.136;2023-04-19T06:49:48;9.17;;;8.07;;
12567;SDS011;6349;50.904;6.136;2023-04-19T06:51:49;9.20;;;8.20;;
12567;SDS011;6349;50.904;6.136;2023-04-19T06:53:49;10.73;;;7.40;;
12567;SDS011;6349;50.904;6.136;2023-04-19T06:55:56;8.47;;;7.57;;
12567;SDS011;6349;50.904;6.136;2023-04-19T06:58:01;7.40;;;6.80;;
12567;SDS011;6349;50.904;6.136;2023-04-19T07:00:02;7.77;;;7.03;;
12567;SDS011;6349;50.904;6.136;2023-04-19T07:02:03;8.67;;;7.03;;
12567;SDS011;6349;50.904;6.136;2023-04-19T07:04:04;11.27;;;6.70;;
12567;SDS011;6349;50.904;6.136;2023-04-19T07:06:05;8.20;;;6.67;;
12567;SDS011;6349;50.904;6.136;2023-04-19T07:08:06;7.37;;;6.30;;
12567;SDS011;6349;50.904;6.136;2023-04-19T07:10:07;7.80;;;6.40;;
12567;SDS011;6349;50.904;6.136;2023-04-19T07:12:08;7.13;;;6.40;;
12567;SDS011;6349;50.904;6.136;2023-04-19T07:14:09;9.23;;;6.43;;
12567;SDS011;6349;50.904;6.136;2023-04-19T07:16:10;6.80;;;6.10;;
12567;SDS011;6349;50.904;6.136;2023-04-19T07:18:12;6.33;;;5.73;;
12567;SDS011;6349;50.904;6.136;2023-04-19T07:20:15;7.37;;;6.30;;
12567;SDS011;6349;50.904;6.136;2023-04-19T07:22:15;6.87;;;6.17;;
12567;SDS011;6349;50.904;6.136;2023-04-19T07:24:16;6.90;;;6.20;;
12567;SDS011;6349;50.904;6.136;2023-04-19T07:26:17;7.07;;;6.13;;
12567;SDS011;6349;50.904;6.136;2023-04-19T07:28:17;8.83;;;6.03;;
12567;SDS011;6349;50.904;6.136;2023-04-19T07:30:18;6.57;;;5.90;;
12567;SDS011;6349;50.904;6.136;2023-04-19T07:32:18;6.37;;;4.90;;
12567;SDS011;6349;50.904;6.136;2023-04-19T07:34:19;10.40;;;5.50;;
12567;SDS011;6349;50.904;6.136;2023-04-19T07:36:20;5.77;;;5.23;;
12567;SDS011;6349;50.904;6.136;2023-04-19T07:38:21;5.33;;;4.83;;
12567;SDS011;6349;50.904;6.136;2023-04-19T07:40:23;5.83;;;4.77;;
12567;SDS011;6349;50.904;6.136;2023-04-19T07:42:25;7.37;;;5.40;;
12567;SDS011;6349;50.904;6.136;2023-04-19T07:44:25;6.27;;;5.20;;
12567;SDS011;6349;50.904;6.136;2023-04-19T07:46:26;5.30;;;4.67;;
12567;SDS011;6349;50.904;6.136;2023-04-19T07:48:26;5.90;;;5.27;;
12567;SDS011;6349;50.904;6.136;2023-04-19T07:50:28;5.30;;;4.80;;
12567;SDS011;6349;50.904;6.136;2023-04-19T07:52:30;5.27;;;4.77;;
12567;SDS011;6349;50.904;6.136;2023-04-19T07:54:32;5.50;;;4.97;;
12567;SDS011;6349;50.904;6.136;2023-04-19T07:56:32;5.80;;;5.20;;
12567;SDS011;6349;50.904;6.136;2023-04-19T07:58:34;6.23;;;5.37;;
12567;SDS011;6349;50.904;6.136;2023-04-19T08:00:37;7.33;;;5.00;;
12567;SDS011;6349;50.904;6.136;2023-04-19T08:02:41;5.27;;;4.70;;
12567;SDS011;6349;50.904;6.136;2023-04-19T08:04:47;6.47;;;4.70;;
12567;SDS011;6349;50.904;6.136;2023-04-19T08:06:52;5.00;;;4.50;;
12567;SDS011;6349;50.904;6.136;2023-04-19T08:08:55;5.03;;;4.53;;
12567;SDS011;6349;50.904;6.136;2023-04-19T08:10:57;7.00;;;5.10;;
12567;SDS011;6349;50.904;6.136;2023-04-19T08:12:58;6.80;;;4.80;;
12567;SDS011;6349;50.904;6.136;2023-04-19T08:15:01;7.03;;;5.30;;
12567;SDS011;6349;50.904;6.136;2023-04-19T08:17:02;5.30;;;4.80;;
12567;SDS011;6349;50.904;6.136;2023-04-19T08:19:04;5.80;;;5.10;;
12567;SDS011;6349;50.904;6.136;2023-04-19T08:21:06;6.07;;;4.93;;
12567;SDS011;6349;50.904;6.136;2023-04-19T08:23:08;5.40;;;4.87;;
12567;SDS011;6349;50.904;6.136;2023-04-19T08:25:11;6.27;;;5.30;;
12567;SDS011;6349;50.904;6.136;2023-04-19T08:27:12;5.67;;;4.63;;
12567;SDS011;6349;50.904;6.136;2023-04-19T08:29:12;6.63;;;4.90;;
12567;SDS011;6349;50.904;6.136;2023-04-19T08:31:13;5.17;;;4.67;;
12567;SDS011;6349;50.904;6.136;2023-04-19T08:33:16;8.80;;;5.40;;
12567;SDS011;6349;50.904;6.136;2023-04-19T08:35:19;8.30;;;4.97;;
12567;SDS011;6349;50.904;6.136;2023-04-19T08:37:20;6.07;;;4.80;;
12567;SDS011;6349;50.904;6.136;2023-04-19T08:39:20;4.97;;;4.30;;
12567;SDS011;6349;50.904;6.136;2023-04-19T08:41:21;6.63;;;5.00;;
12567;SDS011;6349;50.904;6.136;2023-04-19T08:43:24;5.53;;;5.03;;
12567;SDS011;6349;50.904;6.136;2023-04-19T08:45:27;5.37;;;4.87;;
12567;SDS011;6349;50.904;6.136;2023-04-19T08:47:29;5.87;;;5.33;;
12567;SDS011;6349;50.904;6.136;2023-04-19T08:49:35;7.70;;;5.43;;
12567;SDS011;6349;50.904;6.136;2023-04-19T08:51:38;6.33;;;5.13;;
12567;SDS011;6349;50.904;6.136;2023-04-19T08:53:39;6.63;;;5.70;;
12567;SDS011;6349;50.904;6.136;2023-04-19T08:55:41;11.27;;;5.30;;
12567;SDS011;6349;50.904;6.136;2023-04-19T08:57:42;6.63;;;5.50;;
12567;SDS011;6349;50.904;6.136;2023-04-19T08:59:43;8.43;;;5.80;;
12567;SDS011;6349;50.904;6.136;2023-04-19T09:01:44;9.50;;;5.70;;
12567;SDS011;6349;50.904;6.136;2023-04-19T09:03:45;8.33;;;5.67;;
12567;SDS011;6349;50.904;6.136;2023-04-19T09:05:46;9.27;;;5.00;;
12567;SDS011;6349;50.904;6.136;2023-04-19T09:07:47;7.23;;;5.80;;
12567;SDS011;6349;50.904;6.136;2023-04-19T09:09:47;11.10;;;5.60;;
12567;SDS011;6349;50.904;6.136;2023-04-19T09:12:14;6.13;;;4.90;;
12567;SDS011;6349;50.904;6.136;2023-04-19T09:14:17;8.13;;;5.10;;
12567;SDS011;6349;50.904;6.136;2023-04-19T09:16:23;6.73;;;5.27;;
12567;SDS011;6349;50.904;6.136;2023-04-19T09:18:23;7.77;;;5.40;;
12567;SDS011;6349;50.904;6.136;2023-04-19T09:20:34;10.47;;;5.53;;
12567;SDS011;6349;50.904;6.136;2023-04-19T09:22:36;6.43;;;5.50;;
12567;SDS011;6349;50.904;6.136;2023-04-19T09:24:38;9.00;;;5.33;;
12567;SDS011;6349;50.904;6.136;2023-04-19T09:26:39;5.80;;;5.20;;
12567;SDS011;6349;50.904;6.136;2023-04-19T09:29:04;5.87;;;5.13;;
12567;SDS011;6349;50.904;6.136;2023-04-19T09:31:13;5.80;;;5.17;;
12567;SDS011;6349;50.904;6.136;2023-04-19T09:33:20;7.10;;;4.97;;
12567;SDS011;6349;50.904;6.136;2023-04-19T09:35:45;5.90;;;5.40;;
12567;SDS011;6349;50.904;6.136;2023-04-19T09:38:00;6.10;;;5.50;;
12567;SDS011;6349;50.904;6.136;2023-04-19T09:40:20;6.37;;;5.07;;
12567;SDS011;6349;50.904;6.136;2023-04-19T09:42:26;6.20;;;5.60;;
12567;SDS011;6349;50.904;6.136;2023-04-19T09:45:02;6.87;;;5.67;;
12567;SDS011;6349;50.904;6.136;2023-04-19T09:47:20;6.27;;;5.13;;
12567;SDS011;6349;50.904;6.136;2023-04-19T09:49:24;5.60;;;5.10;;
12567;SDS011;6349;50.904;6.136;2023-04-19T09:51:38;7.97;;;5.37;;
12567;SDS011;6349;50.904;6.136;2023-04-19T09:53:41;8.53;;;4.90;;
12567;SDS011;6349;50.904;6.136;2023-04-19T09:55:44;7.93;;;4.83;;
12567;SDS011;6349;50.904;6.136;2023-04-19T09:57:47;8.63;;;4.67;;
12567;SDS011;6349;50.904;6.136;2023-04-19T09:59:49;7.67;;;5.40;;
12567;SDS011;6349;50.904;6.136;2023-04-19T10:01:55;9.03;;;5.03;;
12567;SDS011;6349;50.904;6.136;2023-04-19T10:03:58;7.90;;;4.57;;
12567;SDS011;6349;50.904;6.136;2023-04-19T10:05:59;6.67;;;4.30;;
12567;SDS011;6349;50.904;6.136;2023-04-19T10:08:02;6.73;;;4.40;;
12567;SDS011;6349;50.904;6.136;2023-04-19T10:10:05;6.27;;;4.30;;
12567;SDS011;6349;50.904;6.136;2023-04-19T10:12:08;6.93;;;4.00;;
12567;SDS011;6349;50.904;6.136;2023-04-19T10:14:10;7.87;;;4.90;;
12567;SDS011;6349;50.904;6.136;2023-04-19T10:16:11;8.27;;;3.90;;
12567;SDS011;6349;50.904;6.136;2023-04-19T10:18:12;6.97;;;4.10;;
12567;SDS011;6349;50.904;6.136;2023-04-19T10:20:19;4.67;;;3.53;;
12567;SDS011;6349;50.904;6.136;2023-04-19T10:22:23;8.83;;;4.43;;
12567;SDS011;6349;50.904;6.136;2023-04-19T10:24:24;4.37;;;3.73;;
12567;SDS011;6349;50.904;6.136;2023-04-19T10:26:27;6.30;;;3.70;;
12567;SDS011;6349;50.904;6.136;2023-04-19T10:28:27;4.93;;;3.50;;
12567;SDS011;6349;50.904;6.136;2023-04-19T10:30:34;8.20;;;3.63;;
12567;SDS011;6349;50.904;6.136;2023-04-19T10:32:41;6.27;;;3.93;;
12567;SDS011;6349;50.904;6.136;2023-04-19T10:34:44;6.90;;;3.67;;
12567;SDS011;6349;50.904;6.136;2023-04-19T10:36:45;9.43;;;3.43;;
12567;SDS011;6349;50.904;6.136;2023-04-19T10:38:46;7.03;;;3.53;;
12567;SDS011;6349;50.904;6.136;2023-04-19T10:45:30;6.50;;;3.43;;
12567;SDS011;6349;50.904;6.136;2023-04-19T10:47:42;4.70;;;3.00;;
12567;SDS011;6349;50.904;6.136;2023-04-19T10:49:44;7.93;;;3.70;;
12567;SDS011;6349;50.904;6.136;2023-04-19T10:51:48;7.17;;;3.30;;
12567;SDS011;6349;50.904;6.136;2023-04-19T10:55:57;7.17;;;3.37;;
12567;SDS011;6349;50.904;6.136;2023-04-19T10:58:04;5.10;;;3.20;;
12567;SDS011;6349;50.904;6.136;2023-04-19T11:00:19;3.60;;;3.30;;
12567;SDS011;6349;50.904;6.136;2023-04-19T11:02:27;3.60;;;3.03;;
12567;SDS011;6349;50.904;6.136;2023-04-19T11:06:30;4.93;;;3.40;;
12567;SDS011;6349;50.904;6.136;2023-04-19T11:08:34;5.47;;;3.00;;
12567;SDS011;6349;50.904;6.136;2023-04-19T11:10:34;5.40;;;2.70;;
12567;SDS011;6349;50.904;6.136;2023-04-19T11:12:35;4.53;;;3.10;;
12567;SDS011;6349;50.904;6.136;2023-04-19T11:14:38;4.70;;;2.90;;
12567;SDS011;6349;50.904;6.136;2023-04-19T11:16:39;4.87;;;3.10;;
12567;SDS011;6349;50.904;6.136;2023-04-19T11:18:40;5.50;;;3.20;;
12567;SDS011;6349;50.904;6.136;2023-04-19T11:20:41;6.13;;;2.93;;
12567;SDS011;6349;50.904;6.136;2023-04-19T11:22:45;7.00;;;3.17;;
12567;SDS011;6349;50.904;6.136;2023-04-19T11:24:46;6.47;;;3.43;;
12567;SDS011;6349;50.904;6.136;2023-04-19T11:26:47;6.43;;;3.47;;
12567;SDS011;6349;50.904;6.136;2023-04-19T11:28:48;4.10;;;2.70;;
12567;SDS011;6349;50.904;6.136;2023-04-19T11:30:49;5.90;;;2.70;;
12567;SDS011;6349;50.904;6.136;2023-04-19T11:32:51;4.60;;;3.00;;
12567;SDS011;6349;50.904;6.136;2023-04-19T11:34:52;4.20;;;3.40;;
12567;SDS011;6349;50.904;6.136;2023-04-19T11:36:56;4.23;;;2.77;;
12567;SDS011;6349;50.904;6.136;2023-04-19T11:38:57;4.57;;;3.00;;
12567;SDS011;6349;50.904;6.136;2023-04-19T11:41:01;4.30;;;2.60;;
12567;SDS011;6349;50.904;6.136;2023-04-19T11:43:03;4.00;;;2.70;;
12567;SDS011;6349;50.904;6.136;2023-04-19T11:45:04;3.50;;;2.50;;
12567;SDS011;6349;50.904;6.136;2023-04-19T11:47:05;3.73;;;2.57;;
12567;SDS011;6349;50.904;6.136;2023-04-19T11:49:05;4.43;;;2.60;;
12567;SDS011;6349;50.904;6.136;2023-04-19T11:51:06;3.33;;;2.37;;
12567;SDS011;6349;50.904;6.136;2023-04-19T11:53:17;5.23;;;2.53;;
12567;SDS011;6349;50.904;6.136;2023-04-19T11:55:19;5.83;;;2.70;;
12567;SDS011;6349;50.904;6.136;2023-04-19T11:57:30;3.87;;;2.70;;
12567;SDS011;6349;50.904;6.136;2023-04-19T11:59:33;3.87;;;2.47;;
12567;SDS011;6349;50.904;6.136;2023-04-19T12:01:36;6.63;;;2.30;;
12567;SDS011;6349;50.904;6.136;2023-04-19T12:03:41;4.67;;;2.43;;
12567;SDS011;6349;50.904;6.136;2023-04-19T12:05:54;5.33;;;2.73;;
12567;SDS011;6349;50.904;6.136;2023-04-19T12:08:05;5.13;;;2.50;;
12567;SDS011;6349;50.904;6.136;2023-04-19T12:10:13;5.60;;;2.37;;
12567;SDS011;6349;50.904;6.136;2023-04-19T12:12:30;5.40;;;2.37;;
12567;SDS011;6349;50.904;6.136;2023-04-19T12:14:31;3.07;;;2.10;;
12567;SDS011;6349;50.904;6.136;2023-04-19T12:16:33;4.18;;;2.28;;
12567;SDS011;6349;50.904;6.136;2023-04-19T12:18:43;5.72;;;3.28;;
12567;SDS011;6349;50.904;6.136;2023-04-19T12:20:48;5.00;;;2.40;;
12567;SDS011;6349;50.904;6.136;2023-04-19T12:22:50;3.23;;;2.27;;
12567;SDS011;6349;50.904;6.136;2023-04-19T12:24:51;3.43;;;2.07;;